Aérodrome :
LOGIN :

S'inscrire | Disclaimer

   EN    FR    IT 

 










Légende :    VFR   VFR Marginal   IFR   IFR Intensif   IFR Très Intensif
Visi : 
Plafond : 
>= 8 km
>= 3000ft
5 à 8 km
1000 à 3000 ft
1500m à 5 km
500 à 1000 ft
800 à 1500m
200 à 500 ft
< 800m
< 200 ft
Symboles :   Orages  Brouillard  Fortes neiges  Fortes précipitations  Vent > 20 kt
SIGMETs :   Divers  Orages  Givrage  Turbulence  Onde Orograph.  Cendres Volcan.







- Altitude de l'aérodrome : 527 ft
- Code IATA : DBV


LDDU - Dubrovnik

DERNIER METAR :
  • 240830Z 16004KT 080V250 9999 FEW010 20/16 Q1019 NOSIG

METARs EXPIRÉS :
  • 240800Z VRB04KT 9999 FEW010 19/15 Q1019 NOSIG
  • 240730Z 18005KT 120V240 9999 FEW010 19/16 Q1018 NOSIG
  • 240700Z 15004KT 100V210 9999 FEW008 18/15 Q1018 NOSIG
  • 240630Z 16003KT 100V250 9999 FEW009 18/15 Q1018 NOSIG
  • 240600Z 11003KT 080V150 CAVOK 17/14 Q1018 NOSIG

TAF TAF LDDU
Valide du 24 à 06h jusqu'au 25 à 06h UTC


240525Z 2406/2506 VRB02KT CAVOK TX20/2412Z TN12/2503Z
BECMG 2409/2411 28008KT
BECMG 2417/2419 VRB02KT
Pas de NOTAMs connus pour ce terrain.



MET'MAP, la Météo Aéronautique d'un coup d'oeil ! - Copyright ORBIFLY Décembre 2007 - Disclaimer

ORBIFLY MET'MAP TEAM :

Programmation & Développement : Alexandra Zaïnal
Conception & Développement : Baudouin d'Aumeries
Co-Programmation & Développement : Marc-Olivier Méhu
Soutien technique & logistique : Manuel Goepfert

Contact : metmap@orbifly.com




SOURCES & CREDITS :

   NOAA